Notice: Undefined offset: 173 in /var/www/html/w34_livedata.php on line 151
Weather34 Metar Aviation Weather Data Popup
10°C Temp
'.PHP_EOL;
6°C Dauwpunt
76% Vochtigheid
Temperatuur
23 KM/H
14 MPH
12 KTS
230°
Zuid West

Wind Snelheid
Geheel bewolkt
Luchtdruk 1019.92 (hPa)- 30.12 (in)
Zicht 6.2 (mi) - 10 (km)

Huidig weer
EHLW
Locatie Leeuwarden Air Base 30(km)
Metar:
EHLW 201355Z AUTO 23012KT 9999 OVC048 10/06 Q1020 BLU 23012KT 9999 BKN045 RMK R23
Wed 20th February 14:55 pm

Vliegveld
  Metar Aviation API Data Provided by https://www.checkwx.com/